Messwerte Kinshasa

Temperatur

Temperatur
°C
1615201200 12.00 12.00 30
1615204800 13.00 13.00 31
1615208400 14.00 14.00
1615212000 15.00 15.00 33
1615215600 16.00 16.00 33
1615219200 17.00 17.00 32
1615222800 18.00 18.00 30
1615226400 19.00 19.00 30
1615230000 20.00 20.00
1615233600 21.00 21.00 29
1615237200 22.00 22.00
1615240800 23.00 23.00 27
1615244400 0.00 0.00 27
1615248000 1.00 1.00 26
1615251600 2.00 2.00 26
1615255200 3.00 3.00
1615258800 4.00 4.00
1615262400 5.00 5.00
1615266000 6.00 6.00 25
1615269600 7.00 7.00 25
1615273200 8.00 8.00 26
1615276800 9.00 9.00 28
1615280400 10.00 10.00 28
1615284000 11.00 11.00 29

Aktuellste Messwerte

Wettercharakter
Wetter: wechselnd bewölkt
Temperatur
29 °C
Feuchtigkeit
65 %
Wind
20 km/hWindrichtung: West
Luftdruck
1012 hPa
Messzeit: 9. März 2021, 11.00Datenquelle: METAR

Weitere Messstationen in der Nähe

Messstation Temperatur Entfernung
Brazzaville 28 °C 25 km
Franceville 27 °C 374 km
Pointe-Noire 31 °C 394 km

Wind

Windrichtung Böen Mittelwind
° km/h km/h
1615201200 12.00 11.00 - 12.00 50° 10
1615204800 13.00 12.00 - 13.00 90° 10
1615208400 14.00 13.00 - 14.00
1615212000 15.00 14.00 - 15.00 360° 10
1615215600 16.00 15.00 - 16.00 360° 15
1615219200 17.00 16.00 - 17.00 50° 10
1615222800 18.00 17.00 - 18.00 90° 5
1615226400 19.00 18.00 - 19.00 90° 10
1615230000 20.00 19.00 - 20.00
1615233600 21.00 20.00 - 21.00 0
1615237200 22.00 21.00 - 22.00
1615240800 23.00 22.00 - 23.00 0
1615244400 0.00 23.00 - 0.00 0
1615248000 1.00 0.00 - 1.00 0
1615251600 2.00 1.00 - 2.00 0
1615255200 3.00 2.00 - 3.00
1615258800 4.00 3.00 - 4.00
1615262400 5.00 4.00 - 5.00
1615266000 6.00 5.00 - 6.00 0
1615269600 7.00 6.00 - 7.00 0
1615273200 8.00 7.00 - 8.00 0
1615276800 9.00 8.00 - 9.00 240° 15
1615280400 10.00 9.00 - 10.00 270° 20
1615284000 11.00 10.00 - 11.00 250° 20

Ihre Wetterstation

Fehlt Ihre Wetterstation auf unserem Portal?

Schreiben Sie an network@meteonews.ch